sensor_id;sensor_type;location;lat;lon;timestamp;pressure;altitude;pressure_sealevel;temperature;humidity
27014;BME280;14556;52.222;4.510;2022-08-24T00:02:18;101654.63;;;18.89;100.00
27014;BME280;14556;52.222;4.510;2022-08-24T00:04:45;101652.16;;;18.87;100.00
27014;BME280;14556;52.222;4.510;2022-08-24T00:07:15;101648.84;;;18.85;100.00
27014;BME280;14556;52.222;4.510;2022-08-24T00:09:53;101642.22;;;18.81;100.00
27014;BME280;14556;52.222;4.510;2022-08-24T00:12:20;101647.44;;;18.82;100.00
27014;BME280;14556;52.222;4.510;2022-08-24T00:14:47;101646.00;;;18.80;100.00
27014;BME280;14556;52.222;4.510;2022-08-24T00:17:15;101645.66;;;18.76;100.00
27014;BME280;14556;52.222;4.510;2022-08-24T00:19:42;101653.19;;;18.74;100.00
27014;BME280;14556;52.222;4.510;2022-08-24T00:22:09;101658.03;;;18.72;100.00
27014;BME280;14556;52.222;4.510;2022-08-24T00:24:35;101655.31;;;18.72;100.00
27014;BME280;14556;52.222;4.510;2022-08-24T00:27:03;101652.00;;;18.70;100.00
27014;BME280;14556;52.222;4.510;2022-08-24T00:29:29;101653.06;;;18.69;100.00
27014;BME280;14556;52.222;4.510;2022-08-24T00:31:56;101646.00;;;18.68;100.00
27014;BME280;14556;52.222;4.510;2022-08-24T00:34:22;101641.63;;;18.67;100.00
27014;BME280;14556;52.222;4.510;2022-08-24T00:36:49;101654.72;;;18.70;100.00
27014;BME280;14556;52.222;4.510;2022-08-24T00:39:16;101645.06;;;18.74;100.00
27014;BME280;14556;52.222;4.510;2022-08-24T00:41:45;101646.34;;;18.71;100.00
27014;BME280;14556;52.222;4.510;2022-08-24T00:44:13;101648.34;;;18.76;100.00
27014;BME280;14556;52.222;4.510;2022-08-24T00:47:00;101648.47;;;18.81;100.00
27014;BME280;14556;52.222;4.510;2022-08-24T00:49:39;101642.69;;;18.90;100.00
27014;BME280;14556;52.222;4.510;2022-08-24T00:52:11;101647.44;;;18.82;100.00
27014;BME280;14556;52.222;4.510;2022-08-24T00:54:43;101650.81;;;18.78;100.00
27014;BME280;14556;52.222;4.510;2022-08-24T00:57:14;101644.38;;;18.79;100.00
27014;BME280;14556;52.222;4.510;2022-08-24T00:59:45;101628.66;;;18.69;100.00
27014;BME280;14556;52.222;4.510;2022-08-24T01:02:19;101643.06;;;18.81;100.00
27014;BME280;14556;52.222;4.510;2022-08-24T01:04:52;101637.88;;;18.80;100.00
27014;BME280;14556;52.222;4.510;2022-08-24T01:07:22;101635.75;;;18.82;100.00
27014;BME280;14556;52.222;4.510;2022-08-24T01:09:51;101638.47;;;18.82;100.00
27014;BME280;14556;52.222;4.510;2022-08-24T01:12:20;101642.47;;;18.79;100.00
27014;BME280;14556;52.222;4.510;2022-08-24T01:14:47;101639.06;;;18.72;100.00
27014;BME280;14556;52.222;4.510;2022-08-24T01:17:14;101635.75;;;18.70;100.00
27014;BME280;14556;52.222;4.510;2022-08-24T01:20:07;101638.81;;;18.73;100.00
27014;BME280;14556;52.222;4.510;2022-08-24T01:22:58;101622.53;;;18.61;100.00
27014;BME280;14556;52.222;4.510;2022-08-24T01:25:27;101644.13;;;18.68;100.00
27014;BME280;14556;52.222;4.510;2022-08-24T01:27:55;101653.66;;;18.71;100.00
27014;BME280;14556;52.222;4.510;2022-08-24T01:30:25;101644.69;;;18.70;100.00
27014;BME280;14556;52.222;4.510;2022-08-24T01:33:04;101654.50;;;18.71;100.00
27014;BME280;14556;52.222;4.510;2022-08-24T01:35:33;101653.66;;;18.71;100.00
27014;BME280;14556;52.222;4.510;2022-08-24T01:38:03;101658.03;;;18.72;100.00
27014;BME280;14556;52.222;4.510;2022-08-24T01:40:36;101639.03;;;18.60;100.00
27014;BME280;14556;52.222;4.510;2022-08-24T01:43:05;101643.41;;;18.61;100.00
27014;BME280;14556;52.222;4.510;2022-08-24T01:45:33;101657.78;;;18.73;100.00
27014;BME280;14556;52.222;4.510;2022-08-24T01:47:59;101665.09;;;18.73;100.00
27014;BME280;14556;52.222;4.510;2022-08-24T01:50:28;101667.81;;;18.73;100.00
27014;BME280;14556;52.222;4.510;2022-08-24T01:52:55;101659.31;;;18.69;100.00
27014;BME280;14556;52.222;4.510;2022-08-24T01:55:31;101662.25;;;18.68;100.00
27014;BME280;14556;52.222;4.510;2022-08-24T01:57:58;101667.91;;;18.66;100.00
27014;BME280;14556;52.222;4.510;2022-08-24T02:00:26;101674.38;;;18.65;100.00
27014;BME280;14556;52.222;4.510;2022-08-24T02:02:53;101671.66;;;18.65;100.00
27014;BME280;14556;52.222;4.510;2022-08-24T02:05:20;101659.44;;;18.63;100.00
27014;BME280;14556;52.222;4.510;2022-08-24T02:07:47;101655.75;;;18.57;100.00
27014;BME280;14556;52.222;4.510;2022-08-24T02:10:14;101664.13;;;18.55;100.00
27014;BME280;14556;52.222;4.510;2022-08-24T02:12:42;101656.00;;;18.55;100.00
27014;BME280;14556;52.222;4.510;2022-08-24T02:15:09;101654.34;;;18.54;100.00
27014;BME280;14556;52.222;4.510;2022-08-24T02:17:36;101653.50;;;18.54;100.00
27014;BME280;14556;52.222;4.510;2022-08-24T02:20:05;101654.72;;;18.58;100.00
27014;BME280;14556;52.222;4.510;2022-08-24T02:22:32;101646.78;;;18.56;100.00
27014;BME280;14556;52.222;4.510;2022-08-24T02:24:59;101656.34;;;18.59;100.00
27014;BME280;14556;52.222;4.510;2022-08-24T02:27:25;101651.53;;;18.61;100.00
27014;BME280;14556;52.222;4.510;2022-08-24T02:29:52;101654.25;;;18.61;100.00
27014;BME280;14556;52.222;4.510;2022-08-24T02:32:18;101652.13;;;18.63;100.00
27014;BME280;14556;52.222;4.510;2022-08-24T02:34:45;101652.69;;;18.65;100.00
27014;BME280;14556;52.222;4.510;2022-08-24T02:37:11;101646.25;;;18.66;100.00
27014;BME280;14556;52.222;4.510;2022-08-24T02:39:38;101646.47;;;18.65;100.00
27014;BME280;14556;52.222;4.510;2022-08-24T02:42:04;101647.88;;;18.67;100.00
27014;BME280;14556;52.222;4.510;2022-08-24T02:44:31;101653.06;;;18.69;100.00
27014;BME280;14556;52.222;4.510;2022-08-24T02:46:57;101654.50;;;18.71;100.00
27014;BME280;14556;52.222;4.510;2022-08-24T02:49:25;101650.13;;;18.70;100.00
27014;BME280;14556;52.222;4.510;2022-08-24T02:51:52;101651.41;;;18.68;100.00
27014;BME280;14556;52.222;4.510;2022-08-24T02:54:18;101648.34;;;18.64;100.00
27014;BME280;14556;52.222;4.510;2022-08-24T02:56:45;101659.19;;;18.64;100.00
27014;BME280;14556;52.222;4.510;2022-08-24T02:59:12;101653.78;;;18.64;100.00
27014;BME280;14556;52.222;4.510;2022-08-24T03:01:39;101650.00;;;18.65;100.00
27014;BME280;14556;52.222;4.510;2022-08-24T03:04:06;101649.41;;;18.63;100.00
27014;BME280;14556;52.222;4.510;2022-08-24T03:06:32;101653.41;;;18.60;100.00
27014;BME280;14556;52.222;4.510;2022-08-24T03:08:58;101651.16;;;18.57;100.00
27014;BME280;14556;52.222;4.510;2022-08-24T03:11:25;101658.69;;;18.55;100.00
27014;BME280;14556;52.222;4.510;2022-08-24T03:13:57;101652.91;;;18.52;100.00
27014;BME280;14556;52.222;4.510;2022-08-24T03:16:25;101655.63;;;18.52;100.00
27014;BME280;14556;52.222;4.510;2022-08-24T03:18:52;101662.13;;;18.51;100.00
27014;BME280;14556;52.222;4.510;2022-08-24T03:21:19;101657.72;;;18.49;100.00
27014;BME280;14556;52.222;4.510;2022-08-24T03:23:46;101654.59;;;18.53;100.00
27014;BME280;14556;52.222;4.510;2022-08-24T03:26:12;101655.63;;;18.52;100.00
27014;BME280;14556;52.222;4.510;2022-08-24T03:28:39;101659.53;;;18.56;100.00
27014;BME280;14556;52.222;4.510;2022-08-24T03:31:10;101655.53;;;18.58;100.00
27014;BME280;14556;52.222;4.510;2022-08-24T03:33:36;101659.28;;;18.57;100.00
27014;BME280;14556;52.222;4.510;2022-08-24T03:36:03;101656.81;;;18.56;100.00
27014;BME280;14556;52.222;4.510;2022-08-24T03:38:29;101653.88;;;18.57;100.00
27014;BME280;14556;52.222;4.510;2022-08-24T03:40:56;101655.38;;;18.53;100.00
27014;BME280;14556;52.222;4.510;2022-08-24T03:43:22;101655.75;;;18.57;100.00
27014;BME280;14556;52.222;4.510;2022-08-24T03:46:07;101653.66;;;18.59;100.00
27014;BME280;14556;52.222;4.510;2022-08-24T03:48:34;101658.59;;;18.62;100.00
27014;BME280;14556;52.222;4.510;2022-08-24T03:51:01;101652.94;;;18.64;100.00
27014;BME280;14556;52.222;4.510;2022-08-24T03:53:28;101654.13;;;18.68;100.00
27014;BME280;14556;52.222;4.510;2022-08-24T03:55:54;101659.91;;;18.71;100.00
27014;BME280;14556;52.222;4.510;2022-08-24T03:58:21;101656.72;;;18.75;100.00
27014;BME280;14556;52.222;4.510;2022-08-24T04:00:47;101654.38;;;18.78;100.00
27014;BME280;14556;52.222;4.510;2022-08-24T04:03:14;101656.25;;;18.78;100.00
27014;BME280;14556;52.222;4.510;2022-08-24T04:05:41;101660.16;;;18.82;100.00
27014;BME280;14556;52.222;4.510;2022-08-24T04:08:08;101660.75;;;18.84;100.00
27014;BME280;14556;52.222;4.510;2022-08-24T04:10:36;101658.41;;;18.88;100.00
27014;BME280;14556;52.222;4.510;2022-08-24T04:13:03;101664.38;;;18.90;100.00
27014;BME280;14556;52.222;4.510;2022-08-24T04:15:30;101671.25;;;18.92;100.00
27014;BME280;14556;52.222;4.510;2022-08-24T04:17:57;101667.44;;;18.93;100.00
27014;BME280;14556;52.222;4.510;2022-08-24T04:20:23;101673.22;;;18.97;100.00
27014;BME280;14556;52.222;4.510;2022-08-24T04:22:51;101668.66;;;18.97;100.00
27014;BME280;14556;52.222;4.510;2022-08-24T04:25:18;101672.75;;;19.00;100.00
27014;BME280;14556;52.222;4.510;2022-08-24T04:27:50;101663.56;;;19.01;100.00
27014;BME280;14556;52.222;4.510;2022-08-24T04:30:17;101673.09;;;19.04;100.00
27014;BME280;14556;52.222;4.510;2022-08-24T04:32:43;101670.16;;;19.05;100.00
27014;BME280;14556;52.222;4.510;2022-08-24T04:35:10;101671.59;;;19.08;100.00
27014;BME280;14556;52.222;4.510;2022-08-24T04:37:36;101675.94;;;19.09;100.00
27014;BME280;14556;52.222;4.510;2022-08-24T04:40:03;101682.34;;;19.15;100.00
27014;BME280;14556;52.222;4.510;2022-08-24T04:42:30;101684.22;;;19.14;100.00
27014;BME280;14556;52.222;4.510;2022-08-24T04:44:58;101676.56;;;19.11;100.00
27014;BME280;14556;52.222;4.510;2022-08-24T04:47:25;101682.19;;;19.09;100.00
27014;BME280;14556;52.222;4.510;2022-08-24T04:49:51;101686.38;;;19.12;100.00
27014;BME280;14556;52.222;4.510;2022-08-24T04:52:18;101689.41;;;19.16;100.00
27014;BME280;14556;52.222;4.510;2022-08-24T04:54:44;101683.78;;;19.17;100.00
27014;BME280;14556;52.222;4.510;2022-08-24T04:57:10;101689.19;;;19.17;100.00
27014;BME280;14556;52.222;4.510;2022-08-24T04:59:43;101688.84;;;19.26;100.00
27014;BME280;14556;52.222;4.510;2022-08-24T05:02:09;101687.06;;;19.31;100.00
27014;BME280;14556;52.222;4.510;2022-08-24T05:04:36;101675.63;;;19.29;100.00
27014;BME280;14556;52.222;4.510;2022-08-24T05:07:03;101684.00;;;19.28;100.00
27014;BME280;14556;52.222;4.510;2022-08-24T05:09:29;101687.28;;;19.30;100.00
27014;BME280;14556;52.222;4.510;2022-08-24T05:11:57;101690.00;;;19.30;100.00
27014;BME280;14556;52.222;4.510;2022-08-24T05:14:23;101685.75;;;19.22;100.00
27014;BME280;14556;52.222;4.510;2022-08-24T05:16:54;101683.78;;;19.17;100.00
27014;BME280;14556;52.222;4.510;2022-08-24T05:19:21;101683.41;;;19.14;100.00
27014;BME280;14556;52.222;4.510;2022-08-24T05:21:49;101696.59;;;19.10;100.00
27014;BME280;14556;52.222;4.510;2022-08-24T05:24:16;101693.19;;;19.15;100.00
27014;BME280;14556;52.222;4.510;2022-08-24T05:26:43;101697.22;;;19.12;100.00
27014;BME280;14556;52.222;4.510;2022-08-24T05:29:10;101695.66;;;19.16;100.00
27014;BME280;14556;52.222;4.510;2022-08-24T05:31:42;101696.84;;;19.20;100.00
27014;BME280;14556;52.222;4.510;2022-08-24T05:34:09;101697.22;;;19.24;100.00
27014;BME280;14556;52.222;4.510;2022-08-24T05:36:37;101704.63;;;19.29;100.00
27014;BME280;14556;52.222;4.510;2022-08-24T05:39:08;101696.00;;;19.32;100.00
27014;BME280;14556;52.222;4.510;2022-08-24T05:41:38;101696.34;;;19.36;100.00
27014;BME280;14556;52.222;4.510;2022-08-24T05:44:11;101703.22;;;19.38;100.00
27014;BME280;14556;52.222;4.510;2022-08-24T05:46:38;101698.16;;;19.42;100.00
27014;BME280;14556;52.222;4.510;2022-08-24T05:49:05;101694.47;;;19.48;100.00
27014;BME280;14556;52.222;4.510;2022-08-24T05:51:33;101691.84;;;19.53;100.00
27014;BME280;14556;52.222;4.510;2022-08-24T05:53:59;101694.19;;;19.62;100.00
27014;BME280;14556;52.222;4.510;2022-08-24T05:56:26;101693.50;;;19.66;100.00
27014;BME280;14556;52.222;4.510;2022-08-24T05:58:57;101688.53;;;19.63;100.00
27014;BME280;14556;52.222;4.510;2022-08-24T06:01:25;101690.06;;;19.71;100.00
27014;BME280;14556;52.222;4.510;2022-08-24T06:03:53;101699.25;;;19.82;100.00
27014;BME280;14556;52.222;4.510;2022-08-24T06:06:22;101691.09;;;19.82;100.00
27014;BME280;14556;52.222;4.510;2022-08-24T06:08:51;101693.44;;;19.90;100.00
27014;BME280;14556;52.222;4.510;2022-08-24T06:11:22;101689.72;;;19.97;100.00
27014;BME280;14556;52.222;4.510;2022-08-24T06:14:01;101708.84;;;20.02;100.00
27014;BME280;14556;52.222;4.510;2022-08-24T06:16:37;101705.56;;;20.00;100.00
27014;BME280;14556;52.222;4.510;2022-08-24T06:19:06;101706.44;;;20.17;100.00
27014;BME280;14556;52.222;4.510;2022-08-24T06:21:33;101709.84;;;20.25;100.00
27014;BME280;14556;52.222;4.510;2022-08-24T06:24:00;101701.09;;;20.23;100.00
27014;BME280;14556;52.222;4.510;2022-08-24T06:26:27;101718.53;;;20.39;100.00
27014;BME280;14556;52.222;4.510;2022-08-24T06:29:15;101702.81;;;20.58;100.00
27014;BME280;14556;52.222;4.510;2022-08-24T06:31:43;101708.50;;;20.74;100.00
27014;BME280;14556;52.222;4.510;2022-08-24T06:34:14;101705.28;;;20.77;100.00
27014;BME280;14556;52.222;4.510;2022-08-24T06:36:41;101695.16;;;20.72;100.00
27014;BME280;14556;52.222;4.510;2022-08-24T06:39:08;101699.31;;;20.75;100.00
27014;BME280;14556;52.222;4.510;2022-08-24T06:41:39;101697.00;;;20.84;100.00
27014;BME280;14556;52.222;4.510;2022-08-24T06:44:06;101706.47;;;20.98;100.00
27014;BME280;14556;52.222;4.510;2022-08-24T06:46:34;101703.31;;;20.89;100.00
27014;BME280;14556;52.222;4.510;2022-08-24T06:49:01;101697.63;;;20.91;100.00
27014;BME280;14556;52.222;4.510;2022-08-24T06:51:28;101698.00;;;20.95;100.00
27014;BME280;14556;52.222;4.510;2022-08-24T06:53:55;101701.28;;;20.97;100.00
27014;BME280;14556;52.222;4.510;2022-08-24T06:56:21;101701.03;;;20.98;100.00
27014;BME280;14556;52.222;4.510;2022-08-24T06:58:48;101702.03;;;21.09;100.00
27014;BME280;14556;52.222;4.510;2022-08-24T07:01:23;101695.94;;;21.02;100.00
27014;BME280;14556;52.222;4.510;2022-08-24T07:03:51;101682.16;;;21.09;100.00
27014;BME280;14556;52.222;4.510;2022-08-24T07:06:19;101701.91;;;21.21;100.00
27014;BME280;14556;52.222;4.510;2022-08-24T07:08:46;101692.63;;;21.17;100.00
27014;BME280;14556;52.222;4.510;2022-08-24T07:11:14;101698.44;;;21.26;100.00
27014;BME280;14556;52.222;4.510;2022-08-24T07:13:44;101705.28;;;21.29;100.00
27014;BME280;14556;52.222;4.510;2022-08-24T07:16:13;101703.72;;;21.33;100.00
27014;BME280;14556;52.222;4.510;2022-08-24T07:18:40;101715.75;;;21.37;100.00
27014;BME280;14556;52.222;4.510;2022-08-24T07:21:12;101710.63;;;21.41;100.00
27014;BME280;14556;52.222;4.510;2022-08-24T07:23:39;101710.75;;;21.51;100.00
27014;BME280;14556;52.222;4.510;2022-08-24T07:26:09;101715.94;;;21.53;100.00
27014;BME280;14556;52.222;4.510;2022-08-24T07:28:50;101715.75;;;21.59;100.00
27014;BME280;14556;52.222;4.510;2022-08-24T07:31:16;101724.56;;;21.67;100.00
27014;BME280;14556;52.222;4.510;2022-08-24T07:33:43;101730.66;;;21.74;100.00
27014;BME280;14556;52.222;4.510;2022-08-24T07:36:10;101729.66;;;21.80;100.00
27014;BME280;14556;52.222;4.510;2022-08-24T07:38:47;101728.09;;;21.84;100.00
27014;BME280;14556;52.222;4.510;2022-08-24T07:41:14;101733.44;;;22.02;100.00
27014;BME280;14556;52.222;4.510;2022-08-24T07:44:00;101727.63;;;22.15;100.00
27014;BME280;14556;52.222;4.510;2022-08-24T07:46:27;101734.19;;;22.19;100.00
27014;BME280;14556;52.222;4.510;2022-08-24T07:48:53;101736.75;;;22.31;100.00
27014;BME280;14556;52.222;4.510;2022-08-24T07:51:38;101716.72;;;22.43;100.00
27014;BME280;14556;52.222;4.510;2022-08-24T07:54:11;101727.16;;;22.51;100.00
27014;BME280;14556;52.222;4.510;2022-08-24T07:56:39;101729.91;;;22.56;100.00
27014;BME280;14556;52.222;4.510;2022-08-24T07:59:05;101734.03;;;22.59;100.00
27014;BME280;14556;52.222;4.510;2022-08-24T08:01:38;101733.22;;;22.58;100.00
27014;BME280;14556;52.222;4.510;2022-08-24T08:04:05;101738.66;;;22.58;100.00
27014;BME280;14556;52.222;4.510;2022-08-24T08:06:31;101742.63;;;22.73;100.00
27014;BME280;14556;52.222;4.510;2022-08-24T08:08:58;101741.34;;;22.81;100.00
27014;BME280;14556;52.222;4.510;2022-08-24T08:11:24;101749.28;;;22.88;100.00
27014;BME280;14556;52.222;4.510;2022-08-24T08:13:51;101757.81;;;22.97;100.00
27014;BME280;14556;52.222;4.510;2022-08-24T08:16:19;101757.00;;;22.96;100.00
27014;BME280;14556;52.222;4.510;2022-08-24T08:18:46;101757.19;;;23.22;100.00
27014;BME280;14556;52.222;4.510;2022-08-24T08:21:31;101754.63;;;23.43;100.00
27014;BME280;14556;52.222;4.510;2022-08-24T08:24:16;101749.72;;;23.45;100.00
27014;BME280;14556;52.222;4.510;2022-08-24T08:26:47;101762.75;;;23.38;100.00
27014;BME280;14556;52.222;4.510;2022-08-24T08:29:18;101757.31;;;23.38;100.00
27014;BME280;14556;52.222;4.510;2022-08-24T08:31:45;101756.47;;;23.37;100.00
27014;BME280;14556;52.222;4.510;2022-08-24T08:34:12;101757.38;;;23.43;100.00
27014;BME280;14556;52.222;4.510;2022-08-24T08:36:39;101760.91;;;23.49;100.00
27014;BME280;14556;52.222;4.510;2022-08-24T08:39:08;101755.81;;;23.63;100.00
27014;BME280;14556;52.222;4.510;2022-08-24T08:50:08;101766.16;;;24.20;100.00
27014;BME280;14556;52.222;4.510;2022-08-24T08:53:36;101768.69;;;24.63;100.00
27014;BME280;14556;52.222;4.510;2022-08-24T08:56:22;101756.44;;;24.97;100.00
27014;BME280;14556;52.222;4.510;2022-08-24T08:59:37;101756.94;;;24.99;100.00
27014;BME280;14556;52.222;4.510;2022-08-24T09:02:05;101755.03;;;24.94;100.00
27014;BME280;14556;52.222;4.510;2022-08-24T09:07:26;101745.00;;;25.77;100.00
27014;BME280;14556;52.222;4.510;2022-08-24T09:10:16;101740.88;;;26.35;100.00
27014;BME280;14556;52.222;4.510;2022-08-24T09:12:57;101748.25;;;26.75;100.00
27014;BME280;14556;52.222;4.510;2022-08-24T09:15:51;101744.72;;;26.69;100.00
27014;BME280;14556;52.222;4.510;2022-08-24T09:18:43;101744.38;;;26.81;100.00
27014;BME280;14556;52.222;4.510;2022-08-24T09:29:52;101736.88;;;28.09;91.69
27014;BME280;14556;52.222;4.510;2022-08-24T09:32:50;101747.47;;;27.53;96.52
27014;BME280;14556;52.222;4.510;2022-08-24T09:35:30;101745.69;;;27.19;100.00
27014;BME280;14556;52.222;4.510;2022-08-24T09:37:59;101753.94;;;26.84;100.00
27014;BME280;14556;52.222;4.510;2022-08-24T09:40:55;101751.78;;;26.80;100.00
27014;BME280;14556;52.222;4.510;2022-08-24T09:44:02;101755.13;;;26.37;100.00
27014;BME280;14556;52.222;4.510;2022-08-24T09:49:48;101755.19;;;26.27;100.00
27014;BME280;14556;52.222;4.510;2022-08-24T09:58:23;101759.41;;;26.54;100.00
27014;BME280;14556;52.222;4.510;2022-08-24T10:01:18;101751.63;;;26.66;100.00
27014;BME280;14556;52.222;4.510;2022-08-24T10:07:07;101743.00;;;26.78;96.39
27014;BME280;14556;52.222;4.510;2022-08-24T10:12:31;101747.25;;;26.95;94.21
27014;BME280;14556;52.222;4.510;2022-08-24T10:15:13;101746.19;;;26.91;100.00
27014;BME280;14556;52.222;4.510;2022-08-24T10:28:38;101752.72;;;26.65;100.00
27014;BME280;14556;52.222;4.510;2022-08-24T10:31:13;101751.03;;;26.70;100.00
27014;BME280;14556;52.222;4.510;2022-08-24T10:36:51;101751.53;;;26.77;100.00
27014;BME280;14556;52.222;4.510;2022-08-24T10:39:47;101752.16;;;26.68;100.00
27014;BME280;14556;52.222;4.510;2022-08-24T10:51:12;101732.97;;;26.98;100.00
27014;BME280;14556;52.222;4.510;2022-08-24T10:53:50;101754.97;;;27.23;100.00
27014;BME280;14556;52.222;4.510;2022-08-24T10:56:28;101735.22;;;27.21;100.00
27014;BME280;14556;52.222;4.510;2022-08-24T11:04:38;101749.13;;;27.30;100.00
27014;BME280;14556;52.222;4.510;2022-08-24T11:07:09;101749.78;;;27.46;100.00
27014;BME280;14556;52.222;4.510;2022-08-24T11:12:39;101754.63;;;27.54;100.00
27014;BME280;14556;52.222;4.510;2022-08-24T11:17:57;101745.13;;;26.87;100.00
27014;BME280;14556;52.222;4.510;2022-08-24T11:20:45;101750.47;;;26.73;100.00
27014;BME280;14556;52.222;4.510;2022-08-24T11:23:18;101756.53;;;26.70;100.00
27014;BME280;14556;52.222;4.510;2022-08-24T11:26:05;101749.16;;;26.65;100.00
27014;BME280;14556;52.222;4.510;2022-08-24T11:28:38;101748.34;;;26.64;100.00
27014;BME280;14556;52.222;4.510;2022-08-24T11:31:19;101754.44;;;26.56;100.00
27014;BME280;14556;52.222;4.510;2022-08-24T11:33:51;101759.22;;;26.40;100.00
27014;BME280;14556;52.222;4.510;2022-08-24T11:36:27;101732.50;;;26.11;100.00
27014;BME280;14556;52.222;4.510;2022-08-24T11:44:44;101750.50;;;26.27;100.00
27014;BME280;14556;52.222;4.510;2022-08-24T11:52:51;101747.47;;;26.69;100.00
27014;BME280;14556;52.222;4.510;2022-08-24T12:00:59;101756.94;;;27.17;100.00
27014;BME280;14556;52.222;4.510;2022-08-24T12:03:42;101747.09;;;27.16;100.00
27014;BME280;14556;52.222;4.510;2022-08-24T12:15:05;101737.38;;;27.24;100.00
27014;BME280;14556;52.222;4.510;2022-08-24T12:20:34;101732.06;;;27.33;100.00
27014;BME280;14556;52.222;4.510;2022-08-24T12:23:08;101735.66;;;27.33;100.00
27014;BME280;14556;52.222;4.510;2022-08-24T12:25:36;101738.84;;;27.16;100.00
27014;BME280;14556;52.222;4.510;2022-08-24T12:28:27;101744.59;;;27.20;100.00
27014;BME280;14556;52.222;4.510;2022-08-24T12:30:56;101732.94;;;27.28;100.00
27014;BME280;14556;52.222;4.510;2022-08-24T12:33:30;101710.50;;;27.21;100.00
27014;BME280;14556;52.222;4.510;2022-08-24T12:36:11;101721.44;;;27.26;100.00
27014;BME280;14556;52.222;4.510;2022-08-24T12:38:44;101744.84;;;27.18;100.00
27014;BME280;14556;52.222;4.510;2022-08-24T12:41:16;101727.69;;;27.07;100.00
27014;BME280;14556;52.222;4.510;2022-08-24T12:43:54;101726.50;;;27.13;100.00
27014;BME280;14556;52.222;4.510;2022-08-24T12:46:25;101737.38;;;27.24;100.00
27014;BME280;14556;52.222;4.510;2022-08-24T12:51:45;101746.50;;;27.19;100.00
27014;BME280;14556;52.222;4.510;2022-08-24T13:00:30;101737.50;;;27.13;100.00
27014;BME280;14556;52.222;4.510;2022-08-24T13:03:02;101753.44;;;27.11;100.00
27014;BME280;14556;52.222;4.510;2022-08-24T13:05:52;101757.13;;;26.96;100.00
27014;BME280;14556;52.222;4.510;2022-08-24T13:08:32;101753.31;;;26.92;100.00
27014;BME280;14556;52.222;4.510;2022-08-24T13:11:06;101760.66;;;27.02;100.00
27014;BME280;14556;52.222;4.510;2022-08-24T13:16:06;101747.81;;;26.92;100.00
27014;BME280;14556;52.222;4.510;2022-08-24T13:18:51;101746.25;;;26.86;100.00
27014;BME280;14556;52.222;4.510;2022-08-24T13:21:41;101749.94;;;26.71;100.00
27014;BME280;14556;52.222;4.510;2022-08-24T13:26:55;101746.34;;;26.40;100.00
27014;BME280;14556;52.222;4.510;2022-08-24T13:29:28;101735.94;;;26.37;100.00
27014;BME280;14556;52.222;4.510;2022-08-24T13:31:58;101745.53;;;26.35;100.00
27014;BME280;14556;52.222;4.510;2022-08-24T13:34:46;101737.66;;;26.23;100.00
27014;BME280;14556;52.222;4.510;2022-08-24T13:37:14;101747.03;;;26.11;100.00
27014;BME280;14556;52.222;4.510;2022-08-24T13:39:48;101754.50;;;26.00;100.00
27014;BME280;14556;52.222;4.510;2022-08-24T13:42:26;101755.91;;;25.92;100.00
27014;BME280;14556;52.222;4.510;2022-08-24T13:45:15;101756.22;;;25.80;100.00
27014;BME280;14556;52.222;4.510;2022-08-24T13:48:09;101743.66;;;25.74;100.00
27014;BME280;14556;52.222;4.510;2022-08-24T13:59:18;101755.25;;;25.34;100.00
27014;BME280;14556;52.222;4.510;2022-08-24T14:02:10;101760.19;;;25.27;100.00
27014;BME280;14556;52.222;4.510;2022-08-24T14:07:33;101766.53;;;25.07;100.00
27014;BME280;14556;52.222;4.510;2022-08-24T14:10:24;101762.44;;;25.09;100.00
27014;BME280;14556;52.222;4.510;2022-08-24T14:13:23;101765.19;;;25.04;100.00
27014;BME280;14556;52.222;4.510;2022-08-24T14:16:05;101759.44;;;25.01;100.00
27014;BME280;14556;52.222;4.510;2022-08-24T14:19:03;101754.75;;;25.01;100.00
27014;BME280;14556;52.222;4.510;2022-08-24T14:21:36;101761.91;;;24.97;100.00
27014;BME280;14556;52.222;4.510;2022-08-24T14:24:09;101758.88;;;24.93;100.00
27014;BME280;14556;52.222;4.510;2022-08-24T14:37:22;101749.28;;;24.91;100.00
27014;BME280;14556;52.222;4.510;2022-08-24T14:48:24;101736.16;;;25.03;100.00
27014;BME280;14556;52.222;4.510;2022-08-24T14:51:26;101731.53;;;24.98;100.00
27014;BME280;14556;52.222;4.510;2022-08-24T14:56:30;101732.06;;;24.95;100.00
27014;BME280;14556;52.222;4.510;2022-08-24T15:02:22;101713.97;;;24.89;100.00
27014;BME280;14556;52.222;4.510;2022-08-24T15:05:08;101714.00;;;24.94;100.00
27014;BME280;14556;52.222;4.510;2022-08-24T15:07:52;101716.16;;;25.08;100.00
27014;BME280;14556;52.222;4.510;2022-08-24T15:10:20;101716.16;;;25.08;100.00
27014;BME280;14556;52.222;4.510;2022-08-24T15:12:54;101691.81;;;24.91;100.00
27014;BME280;14556;52.222;4.510;2022-08-24T15:15:37;101707.97;;;25.03;100.00
27014;BME280;14556;52.222;4.510;2022-08-24T15:21:02;101704.13;;;25.14;100.00
27014;BME280;14556;52.222;4.510;2022-08-24T15:29:49;101711.47;;;25.24;100.00
27014;BME280;14556;52.222;4.510;2022-08-24T15:32:15;101709.56;;;25.25;100.00
27014;BME280;14556;52.222;4.510;2022-08-24T15:34:46;101708.72;;;25.29;100.00
27014;BME280;14556;52.222;4.510;2022-08-24T15:37:17;101710.09;;;25.32;100.00
27014;BME280;14556;52.222;4.510;2022-08-24T15:39:50;101711.16;;;25.36;100.00
27014;BME280;14556;52.222;4.510;2022-08-24T15:42:16;101704.59;;;25.37;100.00
27014;BME280;14556;52.222;4.510;2022-08-24T15:44:46;101701.34;;;25.30;100.00